createdAt,value
2022-12-01T00:01:14.634Z,17.77
2022-12-01T00:03:41.307Z,18.93
2022-12-01T00:06:12.163Z,19.17
2022-12-01T00:08:39.169Z,16.83
2022-12-01T00:11:08.351Z,20.80
2022-12-01T00:13:35.932Z,19.17
2022-12-01T00:16:21.244Z,17.47
2022-12-01T00:18:52.297Z,18.47
2022-12-01T00:21:21.042Z,18.97
2022-12-01T00:23:50.317Z,21.10
2022-12-01T00:26:18.325Z,20.03
2022-12-01T00:28:51.682Z,18.07
2022-12-01T00:31:18.596Z,23.40
2022-12-01T00:33:45.891Z,18.37
2022-12-01T00:36:12.619Z,18.87
2022-12-01T00:38:39.427Z,16.77
2022-12-01T00:41:06.504Z,19.03
2022-12-01T00:43:33.301Z,17.90
2022-12-01T00:46:00.156Z,17.47
2022-12-01T00:48:27.162Z,17.17
2022-12-01T00:50:54.927Z,15.43
2022-12-01T00:53:22.439Z,18.20
2022-12-01T00:55:49.153Z,15.00
2022-12-01T00:58:15.967Z,15.10
2022-12-01T01:00:42.890Z,16.17
2022-12-01T01:03:10.632Z,22.30
2022-12-01T01:05:39.591Z,17.83
2022-12-01T01:08:07.957Z,18.17
2022-12-01T01:10:39.281Z,19.43
2022-12-01T01:13:06.231Z,16.60
2022-12-01T01:15:33.111Z,19.30
2022-12-01T01:17:59.803Z,20.60
2022-12-01T01:20:26.572Z,20.90
2022-12-01T01:22:53.255Z,18.63
2022-12-01T01:25:20.032Z,19.63
2022-12-01T01:27:46.709Z,19.97
2022-12-01T01:30:13.785Z,20.10
2022-12-01T01:32:40.472Z,19.77
2022-12-01T01:35:08.162Z,22.07
2022-12-01T01:37:34.884Z,18.87
2022-12-01T01:40:01.773Z,19.10
2022-12-01T01:42:28.477Z,20.43
2022-12-01T01:44:58.811Z,23.30
2022-12-01T01:47:36.050Z,23.73
2022-12-01T01:50:10.889Z,22.77
2022-12-01T01:53:02.271Z,19.17
2022-12-01T01:55:31.753Z,20.67
2022-12-01T01:57:59.308Z,18.70
2022-12-01T02:00:26.190Z,19.47
2022-12-01T02:02:54.094Z,17.23
2022-12-01T02:05:26.597Z,18.07
2022-12-01T02:07:56.623Z,17.97
2022-12-01T02:10:41.539Z,21.73
2022-12-01T02:13:42.072Z,17.70
2022-12-01T02:16:41.949Z,17.67
2022-12-01T02:19:35.788Z,22.33
2022-12-01T02:22:28.331Z,18.33
2022-12-01T02:25:10.221Z,18.40
2022-12-01T02:28:01.898Z,15.33
2022-12-01T02:30:45.673Z,15.20
2022-12-01T02:33:28.921Z,15.67
2022-12-01T02:36:25.154Z,17.70
2022-12-01T02:39:05.689Z,13.90
2022-12-01T02:41:43.377Z,14.07
2022-12-01T02:44:38.837Z,15.50
2022-12-01T02:47:17.192Z,16.87
2022-12-01T02:49:52.737Z,15.43
2022-12-01T02:52:22.156Z,16.40
2022-12-01T02:54:49.163Z,14.80
2022-12-01T02:57:17.185Z,15.60
2022-12-01T02:59:49.397Z,14.77
2022-12-01T03:03:01.586Z,15.43
2022-12-01T03:05:55.473Z,20.43
2022-12-01T03:08:39.229Z,16.40
2022-12-01T03:11:06.257Z,17.33
2022-12-01T03:13:44.006Z,14.53
2022-12-01T03:16:26.845Z,15.13
2022-12-01T03:18:59.060Z,14.97
2022-12-01T03:21:32.790Z,17.27
2022-12-01T03:24:09.907Z,16.93
2022-12-01T03:26:38.931Z,14.40
2022-12-01T03:29:19.620Z,14.60
2022-12-01T03:31:53.042Z,11.67
2022-12-01T03:34:35.606Z,11.70
2022-12-01T03:37:08.775Z,15.00
2022-12-01T03:39:38.272Z,13.03
2022-12-01T03:42:13.465Z,16.13
2022-12-01T03:44:49.440Z,12.87
2022-12-01T03:47:22.593Z,13.57
2022-12-01T03:49:51.879Z,10.83
2022-12-01T03:53:00.222Z,13.70
2022-12-01T03:55:30.058Z,11.10
2022-12-01T03:57:58.894Z,10.97
2022-12-01T04:00:25.757Z,11.57
2022-12-01T04:03:02.064Z,11.67
2022-12-01T04:05:28.893Z,13.23
2022-12-01T04:07:55.948Z,11.00
2022-12-01T04:10:23.024Z,11.13
2022-12-01T04:12:49.787Z,11.00
2022-12-01T04:15:16.687Z,9.40
2022-12-01T04:17:44.909Z,8.97
2022-12-01T04:20:14.133Z,9.27
2022-12-01T04:22:40.900Z,9.60
2022-12-01T04:25:08.365Z,9.37
2022-12-01T04:27:35.546Z,10.27
2022-12-01T04:30:02.436Z,9.83
2022-12-01T04:32:29.135Z,9.40
2022-12-01T04:34:55.770Z,11.20
2022-12-01T04:37:22.559Z,10.73
2022-12-01T04:39:49.579Z,8.40
2022-12-01T04:42:16.454Z,9.77
2022-12-01T04:44:43.085Z,9.77
2022-12-01T04:47:09.749Z,12.83
2022-12-01T04:49:37.255Z,11.53
2022-12-01T04:52:04.179Z,10.40
2022-12-01T04:54:30.807Z,9.83
2022-12-01T04:56:57.475Z,11.33
2022-12-01T04:59:24.204Z,9.93
2022-12-01T05:01:50.930Z,10.23
2022-12-01T05:04:17.751Z,13.83
2022-12-01T05:06:44.518Z,11.20
2022-12-01T05:09:17.581Z,12.00
2022-12-01T05:11:44.797Z,11.07
2022-12-01T05:14:11.488Z,9.97
2022-12-01T05:16:38.227Z,10.40
2022-12-01T05:19:24.999Z,11.40
2022-12-01T05:21:51.804Z,12.40
2022-12-01T05:24:19.999Z,12.33
2022-12-01T05:26:46.779Z,10.60
2022-12-01T05:29:14.344Z,12.97
2022-12-01T05:31:41.259Z,14.37
2022-12-01T05:34:08.520Z,13.00
2022-12-01T05:36:35.608Z,12.33
2022-12-01T05:39:02.310Z,13.57
2022-12-01T05:41:28.957Z,13.37
2022-12-01T05:43:55.654Z,13.60
2022-12-01T05:46:22.467Z,13.57
2022-12-01T05:48:49.297Z,15.10
2022-12-01T05:51:17.035Z,17.47
2022-12-01T05:53:44.530Z,15.37
2022-12-01T05:56:11.208Z,15.93
2022-12-01T05:58:37.993Z,30.50
2022-12-01T06:01:04.863Z,16.70
2022-12-01T06:03:31.624Z,18.37
2022-12-01T06:05:58.283Z,18.83
2022-12-01T06:08:25.085Z,18.57
2022-12-01T06:10:51.717Z,17.93
2022-12-01T06:13:18.409Z,19.13
2022-12-01T06:15:45.095Z,20.33
2022-12-01T06:18:11.764Z,17.53
2022-12-01T06:20:38.388Z,17.83
2022-12-01T06:23:05.082Z,16.60
2022-12-01T06:25:31.805Z,19.17
2022-12-01T06:27:59.057Z,20.23
2022-12-01T06:30:26.099Z,20.50
2022-12-01T06:32:52.813Z,20.30
2022-12-01T06:35:19.622Z,20.27
2022-12-01T06:37:46.292Z,22.40
2022-12-01T06:40:13.260Z,18.97
2022-12-01T06:42:39.903Z,21.33
2022-12-01T06:45:06.970Z,20.67
2022-12-01T06:47:33.703Z,24.70
2022-12-01T06:50:00.501Z,20.07
2022-12-01T06:52:27.151Z,21.17
2022-12-01T06:54:53.858Z,22.67
2022-12-01T06:57:20.992Z,19.33
2022-12-01T06:59:48.088Z,20.43
2022-12-01T07:02:16.515Z,21.07
2022-12-01T07:04:43.243Z,19.70
2022-12-01T07:07:11.100Z,19.83
2022-12-01T07:09:37.816Z,17.80
2022-12-01T07:12:04.652Z,21.10
2022-12-01T07:14:31.701Z,20.67
2022-12-01T07:16:59.305Z,21.27
2022-12-01T07:19:26.091Z,21.13
2022-12-01T07:21:52.803Z,22.27
2022-12-01T07:24:19.446Z,20.17
2022-12-01T07:26:46.132Z,21.00
2022-12-01T07:29:12.832Z,26.73
2022-12-01T07:31:39.833Z,22.87
2022-12-01T07:34:06.694Z,22.10
2022-12-01T07:36:33.688Z,22.40
2022-12-01T07:39:04.428Z,20.83
2022-12-01T07:41:31.073Z,25.47
2022-12-01T07:43:57.791Z,20.70
2022-12-01T07:46:26.468Z,22.50
2022-12-01T07:48:55.201Z,26.90
2022-12-01T07:51:23.678Z,22.80
2022-12-01T07:53:51.797Z,26.13
2022-12-01T07:56:20.116Z,21.70
2022-12-01T07:58:47.061Z,26.40
2022-12-01T08:01:19.704Z,21.77
2022-12-01T08:03:51.567Z,28.10
2022-12-01T08:06:19.372Z,23.87
2022-12-01T08:08:46.649Z,24.60
2022-12-01T08:11:29.146Z,24.23
2022-12-01T08:13:55.919Z,25.93
2022-12-01T08:16:24.418Z,25.23
2022-12-01T08:18:51.620Z,24.40
2022-12-01T08:21:20.673Z,29.73
2022-12-01T08:23:48.776Z,25.43
2022-12-01T08:26:18.696Z,22.37
2022-12-01T08:28:46.523Z,25.53
2022-12-01T08:31:25.478Z,25.13
2022-12-01T08:33:52.743Z,26.40
2022-12-01T08:36:20.501Z,27.70
2022-12-01T08:38:50.692Z,26.60
2022-12-01T08:41:17.672Z,26.80
2022-12-01T08:44:00.931Z,29.77
2022-12-01T08:46:33.762Z,28.37
2022-12-01T08:49:01.339Z,26.23
2022-12-01T08:51:28.214Z,29.53
2022-12-01T08:53:57.063Z,26.00
2022-12-01T08:56:39.427Z,25.60
2022-12-01T08:59:06.498Z,24.33
2022-12-01T09:01:33.377Z,25.50
2022-12-01T09:04:08.756Z,27.27
2022-12-01T09:06:40.718Z,23.20
2022-12-01T09:09:09.653Z,24.93
2022-12-01T09:11:36.549Z,26.20
2022-12-01T09:14:03.548Z,25.60
2022-12-01T09:16:30.275Z,28.23
2022-12-01T09:18:57.073Z,26.10
2022-12-01T09:21:27.048Z,24.57
2022-12-01T09:23:54.268Z,27.00
2022-12-01T09:26:21.959Z,27.77
2022-12-01T09:28:54.568Z,24.43
2022-12-01T09:31:23.367Z,30.00
2022-12-01T09:33:58.694Z,27.87
2022-12-01T09:36:26.204Z,27.10
2022-12-01T09:38:53.050Z,26.10
2022-12-01T09:41:25.748Z,27.60
2022-12-01T09:44:05.903Z,22.73
2022-12-01T09:46:40.646Z,22.83
2022-12-01T09:49:17.249Z,25.30
2022-12-01T09:51:44.131Z,22.83
2022-12-01T09:54:14.382Z,22.43
2022-12-01T09:56:45.896Z,23.07
2022-12-01T09:59:23.571Z,23.37
2022-12-01T10:01:56.151Z,26.20
2022-12-01T10:04:28.072Z,23.10
2022-12-01T10:07:03.121Z,23.37
2022-12-01T10:10:03.768Z,24.83
2022-12-01T10:12:33.457Z,24.13
2022-12-01T10:15:35.129Z,24.57
2022-12-01T10:18:33.947Z,23.40
2022-12-01T10:21:22.074Z,26.20
2022-12-01T10:23:57.972Z,24.20
2022-12-01T10:27:02.251Z,27.47
2022-12-01T10:30:07.536Z,23.73
2022-12-01T10:32:56.123Z,20.17
2022-12-01T10:35:26.821Z,23.27
2022-12-01T10:38:02.547Z,26.83
2022-12-01T10:40:29.619Z,27.87
2022-12-01T10:42:56.361Z,24.27
2022-12-01T10:45:30.326Z,21.57
2022-12-01T10:48:15.667Z,25.43
2022-12-01T10:50:48.253Z,31.00
2022-12-01T10:53:23.900Z,23.00
2022-12-01T10:55:57.504Z,24.17
2022-12-01T10:58:24.246Z,24.90
2022-12-01T11:01:01.631Z,24.57
2022-12-01T11:03:32.429Z,30.93
2022-12-01T11:06:02.133Z,23.17
2022-12-01T11:08:46.119Z,24.93
2022-12-01T11:11:37.597Z,24.63
2022-12-01T11:14:21.135Z,20.47
2022-12-01T11:16:51.379Z,22.60
2022-12-01T11:19:27.986Z,21.30
2022-12-01T11:22:00.426Z,20.03
2022-12-01T11:24:30.611Z,20.13
2022-12-01T11:26:58.844Z,20.47
2022-12-01T11:29:38.053Z,25.10
2022-12-01T11:32:24.896Z,23.57
2022-12-01T11:35:17.560Z,22.77
2022-12-01T11:38:27.272Z,20.60
2022-12-01T11:40:49.971Z,23.70
2022-12-01T11:43:33.108Z,21.07
2022-12-01T11:46:04.963Z,23.17
2022-12-01T11:48:35.211Z,18.47
2022-12-01T11:51:12.817Z,21.57
2022-12-01T11:53:42.249Z,17.73
2022-12-01T11:56:22.468Z,19.73
2022-12-01T11:58:54.213Z,24.03
2022-12-01T12:01:39.350Z,23.17
2022-12-01T12:04:24.729Z,19.33
2022-12-01T12:07:10.230Z,18.43
2022-12-01T12:09:45.962Z,16.70
2022-12-01T12:12:36.002Z,20.23
2022-12-01T12:15:14.539Z,16.77
2022-12-01T12:17:58.858Z,17.93
2022-12-01T12:20:49.010Z,21.93
2022-12-01T12:23:29.581Z,15.87
2022-12-01T12:26:10.546Z,16.67
2022-12-01T12:29:14.584Z,21.47
2022-12-01T12:31:55.174Z,25.97
2022-12-01T12:34:42.904Z,16.97
2022-12-01T12:37:18.520Z,24.53
2022-12-01T12:40:00.203Z,17.57
2022-12-01T12:42:42.888Z,21.37
2022-12-01T12:45:27.148Z,16.30
2022-12-01T12:48:12.285Z,14.30
2022-12-01T12:51:03.420Z,17.03
2022-12-01T12:53:40.179Z,29.20
2022-12-01T12:56:12.008Z,16.40
2022-12-01T12:58:49.400Z,20.93
2022-12-01T13:01:23.140Z,14.00
2022-12-01T13:04:22.571Z,15.37
2022-12-01T13:06:55.911Z,18.93
2022-12-01T13:09:34.601Z,16.43
2022-12-01T13:12:09.020Z,17.53
2022-12-01T13:14:40.891Z,19.27
2022-12-01T13:17:19.895Z,14.40
2022-12-01T13:19:48.209Z,17.00
2022-12-01T13:22:17.923Z,16.67
2022-12-01T13:24:45.043Z,16.70
2022-12-01T13:27:20.469Z,15.37
2022-12-01T13:29:50.581Z,29.77
2022-12-01T13:32:31.642Z,19.03
2022-12-01T13:34:59.918Z,17.17
2022-12-01T13:37:33.341Z,28.70
2022-12-01T13:40:20.832Z,20.13
2022-12-01T13:43:10.761Z,18.47
2022-12-01T13:45:39.932Z,17.57
2022-12-01T13:48:26.052Z,18.80
2022-12-01T13:51:02.340Z,18.27
2022-12-01T13:53:30.466Z,19.83
2022-12-01T13:56:03.185Z,18.43
2022-12-01T13:58:33.070Z,14.10
2022-12-01T14:01:42.451Z,17.17
2022-12-01T14:04:23.754Z,19.50
2022-12-01T14:07:15.218Z,23.57
2022-12-01T14:09:42.480Z,16.53
2022-12-01T14:12:20.075Z,14.70
2022-12-01T14:14:55.971Z,13.17
2022-12-01T14:17:31.576Z,17.00
2022-12-01T14:20:08.312Z,33.40
2022-12-01T14:22:47.301Z,15.20
2022-12-01T14:25:20.211Z,15.67
2022-12-01T14:27:50.768Z,17.87
2022-12-01T14:30:39.367Z,15.97
2022-12-01T14:33:43.230Z,17.83
2022-12-01T14:36:31.862Z,16.47
2022-12-01T14:38:58.777Z,17.97
2022-12-01T14:41:46.871Z,15.27
2022-12-01T14:44:40.808Z,16.90
2022-12-01T14:47:10.559Z,16.70
2022-12-01T14:49:43.003Z,21.20
2022-12-01T14:52:36.303Z,17.80
2022-12-01T14:55:14.761Z,15.97
2022-12-01T14:57:47.580Z,14.80
2022-12-01T15:00:22.875Z,16.73
2022-12-01T15:03:04.597Z,17.37
2022-12-01T15:05:37.306Z,19.10
2022-12-01T15:11:25.891Z,16.37
2022-12-01T15:13:55.825Z,17.93
2022-12-01T15:16:25.235Z,20.27
2022-12-01T15:18:52.479Z,17.87
2022-12-01T15:21:29.210Z,16.17
2022-12-01T15:24:17.268Z,17.57
2022-12-01T15:26:50.052Z,17.53
2022-12-01T15:29:23.698Z,17.30
2022-12-01T15:32:15.098Z,15.67
2022-12-01T15:34:44.961Z,18.53
2022-12-01T15:37:18.960Z,17.43
2022-12-01T15:40:00.835Z,17.97
2022-12-01T15:42:35.821Z,17.80
2022-12-01T15:45:12.878Z,16.37
2022-12-01T15:47:45.089Z,16.07
2022-12-01T15:50:33.356Z,16.70
2022-12-01T15:53:06.387Z,17.20
2022-12-01T15:55:35.883Z,17.73
2022-12-01T15:58:07.350Z,18.50
2022-12-01T16:00:34.142Z,15.83
2022-12-01T16:03:02.206Z,19.60
2022-12-01T16:05:32.490Z,18.40
2022-12-01T16:08:23.325Z,19.07
2022-12-01T16:11:09.943Z,19.70
2022-12-01T16:13:36.545Z,19.50
2022-12-01T16:16:22.950Z,20.43
2022-12-01T16:18:56.183Z,18.87
2022-12-01T16:21:23.468Z,18.60
2022-12-01T16:26:57.092Z,19.53
2022-12-01T16:29:26.156Z,23.03
2022-12-01T16:34:47.747Z,25.53
2022-12-01T16:37:14.928Z,24.17
2022-12-01T16:39:41.673Z,19.83
2022-12-01T16:42:15.970Z,23.63
2022-12-01T16:44:44.646Z,31.40
2022-12-01T16:47:25.382Z,26.40
2022-12-01T16:49:52.912Z,24.57
2022-12-01T16:55:20.692Z,24.05
2022-12-01T16:57:47.355Z,25.48
2022-12-01T17:00:14.647Z,26.47
2022-12-01T17:02:41.426Z,23.50
2022-12-01T17:05:10.978Z,26.13
2022-12-01T17:07:37.901Z,26.60
2022-12-01T17:10:06.055Z,26.93
2022-12-01T17:12:32.813Z,34.93
2022-12-01T17:14:59.546Z,25.90
2022-12-01T17:17:26.251Z,23.17
2022-12-01T17:19:53.031Z,24.73
2022-12-01T17:22:20.173Z,24.53
2022-12-01T17:24:47.064Z,35.73
2022-12-01T17:27:13.976Z,28.03
2022-12-01T17:29:45.876Z,35.30
2022-12-01T17:32:13.773Z,30.33
2022-12-01T17:34:41.034Z,28.33
2022-12-01T17:37:07.963Z,29.83
2022-12-01T17:39:34.679Z,25.53
2022-12-01T17:42:01.404Z,21.73
2022-12-01T17:44:28.102Z,20.00
2022-12-01T17:46:54.824Z,19.83
2022-12-01T17:49:21.637Z,17.37
2022-12-01T17:51:48.366Z,17.47
2022-12-01T17:54:15.180Z,18.17
2022-12-01T17:56:42.659Z,18.23
2022-12-01T17:59:09.318Z,19.77
2022-12-01T18:01:36.065Z,20.93
2022-12-01T18:04:02.886Z,22.70
2022-12-01T18:06:29.573Z,23.37
2022-12-01T18:08:57.383Z,22.57
2022-12-01T18:11:24.175Z,22.30
2022-12-01T18:13:51.738Z,23.57
2022-12-01T18:16:21.621Z,26.93
2022-12-01T18:18:48.974Z,26.37
2022-12-01T18:21:17.904Z,24.00
2022-12-01T18:23:59.741Z,30.57
2022-12-01T18:26:27.996Z,27.27
2022-12-01T18:29:03.446Z,27.93
2022-12-01T18:31:31.121Z,23.40
2022-12-01T18:34:02.569Z,24.27
2022-12-01T18:36:31.477Z,21.80
2022-12-01T18:38:59.773Z,20.67
2022-12-01T18:41:27.134Z,27.23
2022-12-01T18:43:54.276Z,23.77
2022-12-01T18:46:21.847Z,26.17
2022-12-01T18:48:53.645Z,23.63
2022-12-01T18:51:21.411Z,26.17
2022-12-01T18:53:48.122Z,26.70
2022-12-01T18:56:15.318Z,25.63
2022-12-01T18:58:42.780Z,29.03
2022-12-01T19:01:22.025Z,29.43
2022-12-01T19:03:48.849Z,25.30
2022-12-01T19:06:15.822Z,25.63
2022-12-01T19:08:44.921Z,20.77
2022-12-01T19:11:12.551Z,25.60
2022-12-01T19:13:39.257Z,22.53
2022-12-01T19:16:12.892Z,21.37
2022-12-01T19:18:40.224Z,22.37
2022-12-01T19:21:10.089Z,25.40
2022-12-01T19:23:37.496Z,34.50
2022-12-01T19:26:10.459Z,23.00
2022-12-01T19:28:38.406Z,28.63
2022-12-01T19:31:20.181Z,37.57
2022-12-01T19:33:47.388Z,24.50
2022-12-01T19:36:19.849Z,28.33
2022-12-01T19:38:46.918Z,30.67
2022-12-01T19:41:14.259Z,23.33
2022-12-01T19:43:42.405Z,22.53
2022-12-01T19:46:11.763Z,22.87
2022-12-01T19:48:38.573Z,21.53
2022-12-01T19:51:05.528Z,24.80
2022-12-01T19:53:33.982Z,23.13
2022-12-01T19:56:02.980Z,36.37
2022-12-01T19:58:33.042Z,26.47
2022-12-01T20:01:05.845Z,25.10
2022-12-01T20:03:33.147Z,21.70
2022-12-01T20:06:06.706Z,18.60
2022-12-01T20:08:35.931Z,21.90
2022-12-01T20:11:04.517Z,19.77
2022-12-01T20:13:32.964Z,22.37
2022-12-01T20:16:12.883Z,20.80
2022-12-01T20:18:41.025Z,19.97
2022-12-01T20:21:17.111Z,21.33
2022-12-01T20:23:45.784Z,22.30
2022-12-01T20:26:12.874Z,18.83
2022-12-01T20:28:40.639Z,19.53
2022-12-01T20:31:17.697Z,20.47
2022-12-01T20:33:45.354Z,21.37
2022-12-01T20:36:12.456Z,22.10
2022-12-01T20:38:39.403Z,22.90
2022-12-01T20:41:06.715Z,19.47
2022-12-01T20:43:34.095Z,20.00
2022-12-01T20:46:02.068Z,21.03
2022-12-01T20:48:29.476Z,21.63
2022-12-01T20:50:56.431Z,20.77
2022-12-01T20:53:23.162Z,20.37
2022-12-01T20:55:49.819Z,19.00
2022-12-01T20:58:16.482Z,24.23
2022-12-01T21:00:46.530Z,25.33
2022-12-01T21:03:13.779Z,19.23
2022-12-01T21:05:42.198Z,22.53
2022-12-01T21:08:11.202Z,22.23
2022-12-01T21:10:39.328Z,21.17
2022-12-01T21:13:43.836Z,18.10
2022-12-01T21:16:16.629Z,18.90
2022-12-01T21:19:12.616Z,20.67
2022-12-01T21:21:40.940Z,20.67
2022-12-01T21:24:07.552Z,22.57
2022-12-01T21:26:38.804Z,22.03
2022-12-01T21:29:24.898Z,22.03
2022-12-01T21:31:54.061Z,18.33
2022-12-01T21:34:23.469Z,20.13
2022-12-01T21:36:52.270Z,22.77
2022-12-01T21:39:21.372Z,23.53
2022-12-01T21:41:50.540Z,21.67
2022-12-01T21:44:22.516Z,20.60
2022-12-01T21:46:55.237Z,21.03
2022-12-01T21:49:28.214Z,22.43
2022-12-01T21:51:55.231Z,23.67
2022-12-01T21:54:23.093Z,20.77
2022-12-01T21:56:54.070Z,21.93
2022-12-01T21:59:22.911Z,27.13
2022-12-01T22:01:56.747Z,19.97
2022-12-01T22:04:28.691Z,21.23
2022-12-01T22:06:56.802Z,21.27
2022-12-01T22:09:32.756Z,21.03
2022-12-01T22:12:16.363Z,20.70
2022-12-01T22:14:43.002Z,21.00
2022-12-01T22:17:09.893Z,22.27
2022-12-01T22:19:44.401Z,23.10
2022-12-01T22:22:11.069Z,22.27
2022-12-01T22:24:42.421Z,24.33
2022-12-01T22:27:34.170Z,20.13
2022-12-01T22:30:05.175Z,20.77
2022-12-01T22:32:52.073Z,20.30
2022-12-01T22:35:22.513Z,20.17
2022-12-01T22:37:52.331Z,21.17
2022-12-01T22:40:40.666Z,23.10
2022-12-01T22:43:14.117Z,19.43
2022-12-01T22:45:41.907Z,20.13
2022-12-01T22:48:27.823Z,19.27
2022-12-01T22:50:55.286Z,26.03
2022-12-01T22:53:29.053Z,23.03
2022-12-01T22:55:59.935Z,23.33
2022-12-01T22:58:30.796Z,20.70
2022-12-01T23:01:02.540Z,21.60
2022-12-01T23:03:29.273Z,23.53
2022-12-01T23:05:57.012Z,21.63
2022-12-01T23:08:24.337Z,20.03
2022-12-01T23:10:51.059Z,22.77
2022-12-01T23:13:22.980Z,22.17
2022-12-01T23:15:52.823Z,25.00
2022-12-01T23:18:25.595Z,20.87
2022-12-01T23:20:54.636Z,24.97
2022-12-01T23:23:29.400Z,22.57
2022-12-01T23:25:56.876Z,20.63
2022-12-01T23:28:24.749Z,21.30
2022-12-01T23:30:54.929Z,21.97
2022-12-01T23:33:23.937Z,21.73
2022-12-01T23:35:53.636Z,22.43
2022-12-01T23:38:26.049Z,23.90
2022-12-01T23:40:55.703Z,23.33
2022-12-01T23:43:26.177Z,25.50
2022-12-01T23:46:05.419Z,22.53
2022-12-01T23:48:37.172Z,23.20
2022-12-01T23:51:04.850Z,20.70
2022-12-01T23:53:33.022Z,22.23
2022-12-01T23:56:14.177Z,24.17
2022-12-01T23:58:40.884Z,23.67
